createdAt,value
2022-10-17T00:01:45.256Z,3.55
2022-10-17T00:04:13.022Z,3.50
2022-10-17T00:06:40.616Z,3.48
2022-10-17T00:09:08.756Z,3.48
2022-10-17T00:11:36.584Z,3.47
2022-10-17T00:14:09.409Z,3.48
2022-10-17T00:16:46.716Z,3.48
2022-10-17T00:19:23.230Z,3.43
2022-10-17T00:21:50.989Z,3.37
2022-10-17T00:24:18.979Z,3.33
2022-10-17T00:26:49.146Z,3.34
2022-10-17T00:29:16.647Z,3.29
2022-10-17T00:31:44.734Z,3.33
2022-10-17T00:34:11.988Z,3.28
2022-10-17T00:36:40.369Z,3.23
2022-10-17T00:39:08.409Z,3.23
2022-10-17T00:41:43.107Z,3.22
2022-10-17T00:44:32.801Z,3.18
2022-10-17T00:47:09.997Z,3.19
2022-10-17T00:49:50.294Z,3.21
2022-10-17T00:52:24.306Z,3.18
2022-10-17T00:55:08.762Z,3.12
2022-10-17T00:57:36.531Z,3.08
2022-10-17T01:00:08.727Z,3.11
2022-10-17T01:02:35.987Z,3.11
2022-10-17T01:05:04.035Z,3.08
2022-10-17T01:07:34.713Z,3.05
2022-10-17T01:10:05.954Z,3.01
2022-10-17T01:12:47.545Z,2.96
2022-10-17T01:15:20.368Z,2.94
2022-10-17T01:18:09.492Z,2.96
2022-10-17T01:20:54.602Z,2.95
2022-10-17T01:23:55.482Z,2.93
2022-10-17T01:26:49.491Z,2.89
2022-10-17T01:29:34.333Z,2.88
2022-10-17T01:32:04.765Z,2.87
2022-10-17T01:34:36.157Z,2.89
2022-10-17T01:37:18.155Z,2.91
2022-10-17T01:39:48.180Z,2.93
2022-10-17T01:42:47.590Z,2.94
2022-10-17T01:45:27.281Z,2.90
2022-10-17T01:47:57.131Z,2.91
2022-10-17T01:50:31.476Z,2.89
2022-10-17T01:53:09.887Z,2.86
2022-10-17T01:55:41.055Z,2.84
2022-10-17T01:58:13.680Z,2.83
2022-10-17T02:00:44.025Z,2.81
2022-10-17T02:03:17.054Z,2.79
2022-10-17T02:05:46.192Z,2.79
2022-10-17T02:08:13.903Z,2.76
2022-10-17T02:10:49.589Z,2.78
2022-10-17T02:13:41.061Z,2.71
2022-10-17T02:16:42.618Z,2.72
2022-10-17T02:19:29.340Z,2.70
2022-10-17T02:22:18.413Z,2.71
2022-10-17T02:25:17.031Z,2.66
2022-10-17T02:28:05.368Z,2.64
2022-10-17T02:30:52.533Z,2.63
2022-10-17T02:33:28.567Z,2.54
2022-10-17T02:36:01.797Z,2.49
2022-10-17T02:38:30.997Z,2.55
2022-10-17T02:40:58.514Z,2.57
2022-10-17T02:43:26.353Z,2.55
2022-10-17T02:45:54.286Z,2.50
2022-10-17T02:48:35.032Z,2.52
2022-10-17T02:51:05.858Z,2.53
2022-10-17T02:54:14.587Z,2.56
2022-10-17T02:57:06.751Z,2.50
2022-10-17T02:59:37.255Z,2.39
2022-10-17T03:02:10.469Z,2.41
2022-10-17T03:04:37.861Z,2.36
2022-10-17T03:07:04.943Z,2.37
2022-10-17T03:09:32.101Z,2.38
2022-10-17T03:11:59.753Z,2.37
2022-10-17T03:14:27.071Z,2.34
2022-10-17T03:16:54.322Z,2.30
2022-10-17T03:19:21.540Z,2.34
2022-10-17T03:21:48.690Z,2.29
2022-10-17T03:24:16.108Z,2.32
2022-10-17T03:26:43.301Z,2.36
2022-10-17T03:29:10.793Z,2.32
2022-10-17T03:31:38.094Z,2.32
2022-10-17T03:34:05.242Z,2.31
2022-10-17T03:36:32.632Z,2.29
2022-10-17T03:39:00.160Z,2.29
2022-10-17T03:41:27.657Z,2.30
2022-10-17T03:43:54.928Z,2.28
2022-10-17T03:46:22.182Z,2.22
2022-10-17T03:48:49.383Z,2.19
2022-10-17T03:51:16.916Z,2.21
2022-10-17T03:53:51.668Z,2.14
2022-10-17T03:56:22.326Z,2.14
2022-10-17T03:58:50.037Z,2.12
2022-10-17T04:01:19.262Z,2.11
2022-10-17T04:03:53.389Z,2.07
2022-10-17T04:06:21.548Z,2.03
2022-10-17T04:08:49.205Z,1.97
2022-10-17T04:11:21.461Z,1.98
2022-10-17T04:13:48.808Z,1.97
2022-10-17T04:16:17.518Z,1.93
2022-10-17T04:18:44.968Z,1.98
2022-10-17T04:21:13.627Z,1.93
2022-10-17T04:23:40.551Z,1.88
2022-10-17T04:26:07.928Z,1.92
2022-10-17T04:28:36.473Z,1.87
2022-10-17T04:31:06.885Z,1.91
2022-10-17T04:33:35.111Z,1.79
2022-10-17T04:36:04.648Z,1.77
2022-10-17T04:38:32.037Z,1.73
2022-10-17T04:41:03.287Z,1.69
2022-10-17T04:43:35.676Z,1.73
2022-10-17T04:46:04.650Z,1.75
2022-10-17T04:48:32.058Z,1.74
2022-10-17T04:51:05.253Z,1.78
2022-10-17T04:53:34.339Z,1.76
2022-10-17T04:56:01.543Z,1.80
2022-10-17T04:58:31.540Z,1.88
2022-10-17T05:00:58.758Z,1.88
2022-10-17T05:03:25.720Z,1.90
2022-10-17T05:05:52.664Z,1.88
2022-10-17T05:08:19.652Z,1.89
2022-10-17T05:10:46.867Z,1.95
2022-10-17T05:13:14.827Z,1.98
2022-10-17T05:15:42.188Z,1.95
2022-10-17T05:18:09.399Z,1.97
2022-10-17T05:20:36.986Z,1.92
2022-10-17T05:23:03.938Z,1.90
2022-10-17T05:25:31.082Z,1.92
2022-10-17T05:27:58.059Z,1.97
2022-10-17T05:30:25.060Z,2.04
2022-10-17T05:32:55.942Z,2.17
2022-10-17T05:35:23.217Z,2.21
2022-10-17T05:37:50.280Z,2.28
2022-10-17T05:40:17.640Z,2.33
2022-10-17T05:42:49.604Z,2.32
2022-10-17T05:45:17.117Z,2.38
2022-10-17T05:47:44.540Z,2.47
2022-10-17T05:50:11.804Z,2.49
2022-10-17T05:52:38.898Z,2.66
2022-10-17T05:55:07.085Z,2.62
2022-10-17T05:57:34.128Z,2.66
2022-10-17T06:00:01.216Z,2.77
2022-10-17T06:02:29.091Z,2.79
2022-10-17T06:04:56.084Z,2.89
2022-10-17T06:07:23.120Z,2.98
2022-10-17T06:09:50.667Z,3.11
2022-10-17T06:12:17.666Z,3.34
2022-10-17T06:14:47.760Z,3.58
2022-10-17T06:17:16.232Z,3.89
2022-10-17T06:19:45.159Z,4.22
2022-10-17T06:22:12.317Z,4.67
2022-10-17T06:24:39.298Z,4.99
2022-10-17T06:27:10.888Z,5.37
2022-10-17T06:29:39.889Z,5.70
2022-10-17T06:32:09.889Z,6.09
2022-10-17T06:34:39.722Z,6.39
2022-10-17T06:37:06.886Z,6.77
2022-10-17T06:39:35.350Z,7.08
2022-10-17T06:42:04.447Z,7.34
2022-10-17T06:44:32.171Z,7.55
2022-10-17T06:47:00.341Z,7.93
2022-10-17T06:49:28.139Z,8.22
2022-10-17T06:51:55.397Z,8.42
2022-10-17T06:54:22.299Z,8.70
2022-10-17T06:56:49.299Z,8.97
2022-10-17T06:59:16.538Z,9.21
2022-10-17T07:01:46.242Z,9.45
2022-10-17T07:04:14.564Z,9.68
2022-10-17T07:06:42.345Z,9.87
2022-10-17T07:09:09.817Z,9.99
2022-10-17T07:11:37.783Z,10.25
2022-10-17T07:14:04.523Z,10.47
2022-10-17T07:16:38.879Z,10.67
2022-10-17T07:19:05.961Z,10.92
2022-10-17T07:21:38.956Z,11.19
2022-10-17T07:24:07.707Z,11.40
2022-10-17T07:26:34.872Z,11.67
2022-10-17T07:29:02.611Z,11.93
2022-10-17T07:31:29.580Z,12.15
2022-10-17T07:33:57.022Z,12.31
2022-10-17T07:36:24.200Z,12.49
2022-10-17T07:38:51.115Z,12.66
2022-10-17T07:41:21.722Z,12.84
2022-10-17T07:43:49.656Z,12.98
2022-10-17T07:46:16.716Z,13.10
2022-10-17T07:48:43.679Z,13.31
2022-10-17T07:51:11.019Z,13.52
2022-10-17T07:53:41.768Z,13.54
2022-10-17T07:56:11.690Z,13.67
2022-10-17T07:58:39.418Z,13.78
2022-10-17T08:01:14.869Z,13.93
2022-10-17T08:03:44.831Z,13.97
2022-10-17T08:06:13.120Z,14.12
2022-10-17T08:08:40.558Z,14.33
2022-10-17T08:11:10.289Z,14.40
2022-10-17T08:13:38.272Z,14.50
2022-10-17T08:16:11.001Z,14.64
2022-10-17T08:18:42.921Z,14.78
2022-10-17T08:21:11.962Z,14.89
2022-10-17T08:23:39.008Z,15.14
2022-10-17T08:26:10.833Z,15.35
2022-10-17T08:28:40.338Z,15.41
2022-10-17T08:31:10.474Z,15.53
2022-10-17T08:33:38.515Z,15.58
2022-10-17T08:36:06.566Z,15.56
2022-10-17T08:38:35.949Z,15.73
2022-10-17T08:41:07.518Z,15.85
2022-10-17T08:44:03.544Z,15.90
2022-10-17T08:46:34.288Z,15.93
2022-10-17T08:49:06.477Z,15.89
2022-10-17T08:51:40.746Z,15.85
2022-10-17T08:54:24.644Z,15.82
2022-10-17T08:56:54.780Z,16.02
2022-10-17T08:59:29.197Z,16.13
2022-10-17T09:02:18.684Z,16.10
2022-10-17T09:04:56.519Z,16.14
2022-10-17T09:07:57.515Z,16.15
2022-10-17T09:10:41.356Z,16.23
2022-10-17T09:14:12.049Z,16.34
2022-10-17T09:16:47.201Z,16.39
2022-10-17T09:19:23.705Z,16.50
2022-10-17T09:22:00.391Z,16.61
2022-10-17T09:24:58.256Z,16.64
2022-10-17T09:27:36.574Z,16.69
2022-10-17T09:30:44.167Z,16.77
2022-10-17T09:33:34.781Z,16.84
2022-10-17T09:36:21.127Z,16.99
2022-10-17T09:38:53.290Z,17.01
2022-10-17T09:41:44.717Z,16.84
2022-10-17T09:44:37.124Z,16.82
2022-10-17T09:47:39.525Z,16.90
2022-10-17T09:50:21.055Z,16.96
2022-10-17T09:52:50.962Z,16.96
2022-10-17T09:55:22.854Z,17.00
2022-10-17T09:58:02.806Z,17.08
2022-10-17T10:00:34.667Z,17.24
2022-10-17T10:03:25.082Z,17.34
2022-10-17T10:06:15.515Z,17.34
2022-10-17T10:08:55.112Z,17.25
2022-10-17T10:11:26.602Z,17.25
2022-10-17T10:14:14.590Z,17.36
2022-10-17T10:16:46.222Z,17.46
2022-10-17T10:19:50.738Z,17.45
2022-10-17T10:22:20.229Z,17.47
2022-10-17T10:25:46.186Z,17.55
2022-10-17T10:28:17.708Z,17.59
2022-10-17T10:30:54.194Z,17.73
2022-10-17T10:33:33.358Z,17.67
2022-10-17T10:36:10.130Z,17.66
2022-10-17T10:38:45.222Z,17.75
2022-10-17T10:41:13.113Z,17.83
2022-10-17T10:46:33.395Z,17.92
2022-10-17T10:49:02.516Z,18.05
2022-10-17T10:51:50.169Z,18.01
2022-10-17T10:54:32.678Z,17.95
2022-10-17T10:57:04.179Z,17.95
2022-10-17T10:59:40.256Z,18.05
2022-10-17T11:02:26.348Z,18.15
2022-10-17T11:05:12.556Z,18.13
2022-10-17T11:07:45.974Z,18.11
2022-10-17T11:10:37.894Z,18.06
2022-10-17T11:13:17.689Z,18.11
2022-10-17T11:16:10.467Z,18.16
2022-10-17T11:18:47.452Z,18.29
2022-10-17T11:21:24.500Z,18.18
2022-10-17T11:24:33.549Z,18.23
2022-10-17T11:27:03.364Z,18.30
2022-10-17T11:29:33.811Z,18.27
2022-10-17T11:32:59.562Z,18.32
2022-10-17T11:35:43.405Z,18.21
2022-10-17T11:38:27.959Z,18.27
2022-10-17T11:40:59.791Z,18.23
2022-10-17T11:43:35.933Z,18.11
2022-10-17T11:46:12.402Z,18.12
2022-10-17T11:49:07.037Z,18.15
2022-10-17T11:52:02.110Z,18.18
2022-10-17T11:54:37.667Z,18.03
2022-10-17T11:57:15.169Z,18.10
2022-10-17T12:00:01.269Z,18.23
2022-10-17T12:02:45.039Z,18.13
2022-10-17T12:05:38.054Z,18.12
2022-10-17T12:08:10.555Z,18.08
2022-10-17T12:11:01.142Z,17.85
2022-10-17T12:13:32.488Z,17.73
2022-10-17T12:16:19.862Z,17.75
2022-10-17T12:19:11.628Z,17.78
2022-10-17T12:22:26.249Z,17.98
2022-10-17T12:25:00.837Z,18.01
2022-10-17T12:27:38.905Z,18.08
2022-10-17T12:30:12.307Z,17.94
2022-10-17T12:33:08.888Z,17.82
2022-10-17T12:35:38.543Z,17.79
2022-10-17T12:38:17.899Z,17.85
2022-10-17T12:40:48.684Z,17.88
2022-10-17T12:43:16.278Z,17.85
2022-10-17T12:45:56.553Z,17.93
2022-10-17T12:48:38.730Z,17.90
2022-10-17T12:51:35.407Z,17.81
2022-10-17T12:54:10.234Z,17.82
2022-10-17T12:56:43.838Z,17.84
2022-10-17T12:59:22.818Z,17.69
2022-10-17T13:01:57.809Z,17.52
2022-10-17T13:04:26.222Z,17.45
2022-10-17T13:06:57.184Z,17.44
2022-10-17T13:09:33.323Z,17.40
2022-10-17T13:12:03.523Z,17.31
2022-10-17T13:14:33.352Z,17.29
2022-10-17T13:17:05.612Z,17.29
2022-10-17T13:19:42.816Z,17.30
2022-10-17T13:22:20.872Z,17.18
2022-10-17T13:24:49.626Z,17.16
2022-10-17T13:27:34.279Z,17.12
2022-10-17T13:30:18.027Z,16.99
2022-10-17T13:32:45.692Z,16.96
2022-10-17T13:35:17.444Z,16.98
2022-10-17T13:37:51.558Z,16.88
2022-10-17T13:40:49.114Z,16.86
2022-10-17T13:43:24.534Z,16.84
2022-10-17T13:46:25.435Z,16.83
2022-10-17T13:48:53.144Z,16.85
2022-10-17T13:51:20.666Z,16.81
2022-10-17T13:53:47.820Z,16.70
2022-10-17T13:56:28.365Z,16.68
2022-10-17T13:59:10.224Z,16.58
2022-10-17T14:01:38.516Z,16.50
2022-10-17T14:04:14.108Z,16.45
2022-10-17T14:06:51.171Z,16.36
2022-10-17T14:09:29.321Z,16.32
2022-10-17T14:11:58.317Z,16.22
2022-10-17T14:14:26.689Z,16.11
2022-10-17T14:16:54.863Z,16.04
2022-10-17T14:19:38.725Z,15.98
2022-10-17T14:22:38.416Z,16.05
2022-10-17T14:25:08.862Z,16.03
2022-10-17T14:27:55.853Z,15.97
2022-10-17T14:30:51.791Z,15.92
2022-10-17T14:33:27.807Z,15.86
2022-10-17T14:36:00.103Z,15.85
2022-10-17T14:38:29.877Z,15.79
2022-10-17T14:44:14.985Z,15.81
2022-10-17T14:46:50.531Z,15.71
2022-10-17T14:49:25.592Z,15.60
2022-10-17T14:52:14.933Z,15.44
2022-10-17T14:54:48.810Z,15.37
2022-10-17T14:57:30.306Z,15.27
2022-10-17T14:59:58.866Z,15.20
2022-10-17T15:02:27.836Z,15.11
2022-10-17T15:04:55.436Z,15.00
2022-10-17T15:07:24.047Z,14.89
2022-10-17T15:09:53.164Z,14.80
2022-10-17T15:12:23.861Z,14.61
2022-10-17T15:14:52.158Z,14.42
2022-10-17T15:17:21.167Z,14.28
2022-10-17T15:19:49.226Z,14.13
2022-10-17T15:22:16.454Z,13.98
2022-10-17T15:24:43.528Z,13.82
2022-10-17T15:27:16.884Z,13.64
2022-10-17T15:29:44.501Z,13.47
2022-10-17T15:32:11.918Z,13.29
2022-10-17T15:34:38.978Z,13.16
2022-10-17T15:37:14.670Z,12.99
2022-10-17T15:39:41.609Z,12.90
2022-10-17T15:42:12.964Z,12.76
2022-10-17T15:44:44.290Z,12.63
2022-10-17T15:47:25.851Z,12.51
2022-10-17T15:52:37.421Z,12.18
2022-10-17T15:55:06.202Z,12.01
2022-10-17T15:57:42.112Z,11.92
2022-10-17T16:00:30.280Z,11.80
2022-10-17T16:02:57.928Z,11.62
2022-10-17T16:05:26.658Z,11.51
2022-10-17T16:07:54.899Z,11.35
2022-10-17T16:10:29.024Z,11.22
2022-10-17T16:12:56.736Z,11.10
2022-10-17T16:15:44.183Z,10.99
2022-10-17T16:18:52.211Z,10.81
2022-10-17T16:21:23.041Z,10.67
2022-10-17T16:23:50.598Z,10.48
2022-10-17T16:26:18.102Z,10.35
2022-10-17T16:28:46.256Z,10.26
2022-10-17T16:31:20.221Z,10.10
2022-10-17T16:33:48.177Z,10.06
2022-10-17T16:36:15.131Z,10.05
2022-10-17T16:38:42.195Z,9.93
2022-10-17T16:41:29.237Z,9.89
2022-10-17T16:44:00.551Z,9.78
2022-10-17T16:46:30.836Z,9.70
2022-10-17T16:48:59.021Z,9.68
2022-10-17T16:51:30.001Z,9.55
2022-10-17T16:54:00.344Z,9.47
2022-10-17T16:56:32.970Z,9.33
2022-10-17T16:59:01.212Z,9.17
2022-10-17T17:01:29.662Z,9.18
2022-10-17T17:03:57.242Z,9.12
2022-10-17T17:06:30.923Z,9.14
2022-10-17T17:08:58.374Z,9.10
2022-10-17T17:11:27.010Z,9.02
2022-10-17T17:13:59.042Z,8.92
2022-10-17T17:16:27.686Z,8.89
2022-10-17T17:19:00.202Z,8.85
2022-10-17T17:21:28.152Z,8.89
2022-10-17T17:23:59.080Z,8.86
2022-10-17T17:26:28.381Z,8.83
2022-10-17T17:28:57.517Z,8.82
2022-10-17T17:31:27.758Z,8.79
2022-10-17T17:36:32.928Z,8.67
2022-10-17T17:39:02.169Z,8.60
2022-10-17T17:41:29.994Z,8.50
2022-10-17T17:43:57.670Z,8.50
2022-10-17T17:46:25.825Z,8.42
2022-10-17T17:48:54.510Z,8.39
2022-10-17T17:51:28.318Z,8.33
2022-10-17T17:53:56.571Z,8.29
2022-10-17T17:56:30.065Z,8.20
2022-10-17T17:59:03.889Z,8.11
2022-10-17T18:01:35.375Z,8.05
2022-10-17T18:04:03.545Z,8.01
2022-10-17T18:06:31.061Z,7.98
2022-10-17T18:08:59.608Z,7.95
2022-10-17T18:11:27.943Z,7.94
2022-10-17T18:14:00.320Z,7.90
2022-10-17T18:16:28.952Z,7.86
2022-10-17T18:18:56.252Z,7.81
2022-10-17T18:21:23.964Z,7.75
2022-10-17T18:23:52.062Z,7.73
2022-10-17T18:26:22.503Z,7.68
2022-10-17T18:28:58.559Z,7.62
2022-10-17T18:31:29.244Z,7.58
2022-10-17T18:34:03.760Z,7.53
2022-10-17T18:36:32.450Z,7.52
2022-10-17T18:39:01.050Z,7.49
2022-10-17T18:41:28.889Z,7.43
2022-10-17T18:44:08.860Z,7.39
2022-10-17T18:49:19.448Z,7.34
2022-10-17T18:51:50.407Z,7.29
2022-10-17T18:54:21.756Z,7.27
2022-10-17T18:56:54.294Z,7.25
2022-10-17T18:59:36.663Z,7.18
2022-10-17T19:02:04.636Z,7.06
2022-10-17T19:04:31.712Z,7.03
2022-10-17T19:06:58.941Z,7.00
2022-10-17T19:09:26.508Z,6.93
2022-10-17T19:11:54.113Z,6.94
2022-10-17T19:14:21.757Z,6.94
2022-10-17T19:16:51.397Z,6.96
2022-10-17T19:19:31.428Z,6.90
2022-10-17T19:22:00.708Z,6.88
2022-10-17T19:24:29.208Z,6.82
2022-10-17T19:26:58.558Z,6.79
2022-10-17T19:29:28.624Z,6.79
2022-10-17T19:34:28.180Z,6.68
2022-10-17T19:36:56.116Z,6.65
2022-10-17T19:39:24.309Z,6.62
2022-10-17T19:41:51.536Z,6.57
2022-10-17T19:44:19.227Z,6.47
2022-10-17T19:46:49.525Z,6.36
2022-10-17T19:49:17.607Z,6.26
2022-10-17T19:51:44.911Z,6.32
2022-10-17T19:54:13.149Z,6.25
2022-10-17T19:56:43.418Z,6.23
2022-10-17T19:59:14.168Z,6.24
2022-10-17T20:01:41.550Z,6.23
2022-10-17T20:04:11.247Z,6.24
2022-10-17T20:06:39.669Z,6.23
2022-10-17T20:09:12.486Z,6.16
2022-10-17T20:11:46.603Z,6.11
2022-10-17T20:14:15.737Z,6.12
2022-10-17T20:16:45.125Z,6.11
2022-10-17T20:19:14.017Z,6.07
2022-10-17T20:21:41.784Z,6.03
2022-10-17T20:24:12.564Z,6.00
2022-10-17T20:26:40.273Z,5.97
2022-10-17T20:29:13.224Z,5.97
2022-10-17T20:31:42.456Z,5.90
2022-10-17T20:34:13.245Z,5.90
2022-10-17T20:36:41.692Z,5.91
2022-10-17T20:39:11.499Z,5.85
2022-10-17T20:41:39.278Z,5.85
2022-10-17T20:44:07.115Z,5.83
2022-10-17T20:46:37.165Z,5.74
2022-10-17T20:49:06.871Z,5.76
2022-10-17T20:51:34.796Z,5.73
2022-10-17T20:54:03.082Z,5.72
2022-10-17T20:56:32.600Z,5.67
2022-10-17T20:59:12.396Z,5.69
2022-10-17T21:01:42.755Z,5.65
2022-10-17T21:04:45.388Z,5.62
2022-10-17T21:07:00.269Z,5.61
2022-10-17T21:09:27.699Z,5.60
2022-10-17T21:11:56.183Z,5.55
2022-10-17T21:14:24.893Z,5.42
2022-10-17T21:16:52.719Z,5.47
2022-10-17T21:19:20.226Z,5.41
2022-10-17T21:21:47.236Z,5.40
2022-10-17T21:24:18.426Z,5.38
2022-10-17T21:26:47.424Z,5.41
2022-10-17T21:29:14.634Z,5.33
2022-10-17T21:31:44.085Z,5.35
2022-10-17T21:34:18.470Z,5.33
2022-10-17T21:36:46.650Z,5.30
2022-10-17T21:39:15.646Z,5.30
2022-10-17T21:41:44.327Z,5.29
2022-10-17T21:44:18.332Z,5.27
2022-10-17T21:46:55.714Z,5.23
2022-10-17T21:49:25.932Z,5.24
2022-10-17T21:51:53.573Z,5.23
2022-10-17T21:54:23.404Z,5.16
2022-10-17T21:56:51.382Z,5.11
2022-10-17T21:59:18.765Z,5.13
2022-10-17T22:01:46.684Z,5.07
2022-10-17T22:04:16.667Z,4.97
2022-10-17T22:06:46.218Z,4.95
2022-10-17T22:09:19.408Z,4.89
2022-10-17T22:11:48.360Z,4.88
2022-10-17T22:14:18.457Z,4.89
2022-10-17T22:16:46.876Z,4.90
2022-10-17T22:19:25.339Z,4.89
2022-10-17T22:21:53.164Z,4.88
2022-10-17T22:24:27.416Z,4.85
2022-10-17T22:26:54.517Z,4.83
2022-10-17T22:29:21.876Z,4.80
2022-10-17T22:31:49.054Z,4.81
2022-10-17T22:34:17.535Z,4.79
2022-10-17T22:36:44.934Z,4.73
2022-10-17T22:39:12.519Z,4.68
2022-10-17T22:41:39.915Z,4.67
2022-10-17T22:44:07.634Z,4.64
2022-10-17T22:46:38.137Z,4.64
2022-10-17T22:49:08.468Z,4.56
2022-10-17T22:51:35.804Z,4.57
2022-10-17T22:54:03.505Z,4.53
2022-10-17T22:56:30.729Z,4.49
2022-10-17T22:59:00.845Z,4.45
2022-10-17T23:01:28.392Z,4.37
2022-10-17T23:03:56.021Z,4.39
2022-10-17T23:06:24.057Z,4.38
2022-10-17T23:08:51.766Z,4.36
2022-10-17T23:11:21.160Z,4.32
2022-10-17T23:13:51.010Z,4.27
2022-10-17T23:16:18.937Z,4.29
2022-10-17T23:18:46.720Z,4.25
2022-10-17T23:21:14.361Z,4.31
2022-10-17T23:23:42.309Z,4.31
2022-10-17T23:26:11.088Z,4.29
2022-10-17T23:28:42.752Z,4.22
2022-10-17T23:31:21.650Z,4.22
2022-10-17T23:33:50.656Z,4.21
2022-10-17T23:36:23.529Z,4.21
2022-10-17T23:38:52.759Z,4.19
2022-10-17T23:41:22.983Z,4.18
2022-10-17T23:43:54.509Z,4.17
2022-10-17T23:46:21.516Z,4.13
2022-10-17T23:48:48.993Z,4.05
2022-10-17T23:51:16.561Z,3.97
2022-10-17T23:53:44.178Z,3.98
2022-10-17T23:56:11.801Z,3.97
2022-10-17T23:58:39.606Z,3.96
